sensor_id;sensor_type;location;lat;lon;timestamp;pressure;altitude;pressure_sealevel;temperature;humidity
30714;BME280;17465;47.934;33.430;2023-06-22T00:00:39;57423.63;;;-140.43;88.08
30714;BME280;17465;47.934;33.430;2023-06-22T00:03:09;57423.63;;;-140.43;88.08
30714;BME280;17465;47.934;33.430;2023-06-22T00:05:40;57415.16;;;-140.43;87.77
30714;BME280;17465;47.934;33.430;2023-06-22T00:08:10;57460.70;;;-140.43;87.29
30714;BME280;17465;47.934;33.430;2023-06-22T00:10:41;57442.69;;;-140.43;87.44
30714;BME280;17465;47.934;33.430;2023-06-22T00:13:13;57442.69;;;-140.43;87.44
30714;BME280;17465;47.934;33.430;2023-06-22T00:15:43;57423.63;;;-140.43;87.32
30714;BME280;17465;47.934;33.430;2023-06-22T00:18:14;57446.93;;;-140.43;87.10
30714;BME280;17465;47.934;33.430;2023-06-22T00:20:45;57409.86;;;-140.43;87.07
30714;BME280;17465;47.934;33.430;2023-06-22T00:23:15;57431.04;;;-140.43;87.32
30714;BME280;17465;47.934;33.430;2023-06-22T00:25:45;57434.22;;;-140.43;87.40
30714;BME280;17465;47.934;33.430;2023-06-22T00:28:15;57447.99;;;-140.43;87.81
30714;BME280;17465;47.934;33.430;2023-06-22T00:30:46;57447.99;;;-140.43;87.81
30714;BME280;17465;47.934;33.430;2023-06-22T00:33:17;57416.21;;;-140.43;87.37
30714;BME280;17465;47.934;33.430;2023-06-22T00:35:47;57429.98;;;-140.43;87.34
30714;BME280;17465;47.934;33.430;2023-06-22T00:38:18;57451.16;;;-140.43;87.80
30714;BME280;17465;47.934;33.430;2023-06-22T00:40:49;57427.87;;;-140.43;87.78
30714;BME280;17465;47.934;33.430;2023-06-22T00:43:19;57424.69;;;-140.43;88.06
30714;BME280;17465;47.934;33.430;2023-06-22T00:45:50;57445.87;;;-140.43;88.31
30714;BME280;17465;47.934;33.430;2023-06-22T00:48:21;57424.69;;;-140.43;88.73
30714;BME280;17465;47.934;33.430;2023-06-22T00:50:52;57419.39;;;-140.43;88.58
30714;BME280;17465;47.934;33.430;2023-06-22T00:53:22;57422.57;;;-140.43;89.08
30714;BME280;17465;47.934;33.430;2023-06-22T00:55:52;57422.57;;;-140.43;89.08
30714;BME280;17465;47.934;33.430;2023-06-22T00:58:23;57401.39;;;-140.43;88.60
30714;BME280;17465;47.934;33.430;2023-06-22T01:00:53;57398.21;;;-140.43;88.81
30714;BME280;17465;47.934;33.430;2023-06-22T01:03:23;57418.33;;;-140.43;89.19
30714;BME280;17465;47.934;33.430;2023-06-22T01:05:58;57424.69;;;-140.43;89.62
30714;BME280;17465;47.934;33.430;2023-06-22T01:08:37;57433.16;;;-140.43;89.30
30714;BME280;17465;47.934;33.430;2023-06-22T01:11:08;57414.10;;;-140.43;89.48
30714;BME280;17465;47.934;33.430;2023-06-22T01:13:50;57409.86;;;-140.43;89.60
30714;BME280;17465;47.934;33.430;2023-06-22T01:16:31;57403.51;;;-140.43;90.03
30714;BME280;17465;47.934;33.430;2023-06-22T01:19:11;57408.80;;;-140.43;89.95
30714;BME280;17465;47.934;33.430;2023-06-22T01:21:47;57425.75;;;-140.43;90.70
30714;BME280;17465;47.934;33.430;2023-06-22T01:27:47;57414.10;;;-140.43;91.03
30714;BME280;17465;47.934;33.430;2023-06-22T01:30:14;57414.10;;;-140.43;91.03
30714;BME280;17465;47.934;33.430;2023-06-22T01:32:46;57393.98;;;-140.43;91.03
30714;BME280;17465;47.934;33.430;2023-06-22T01:35:18;57439.52;;;-140.43;90.87
30714;BME280;17465;47.934;33.430;2023-06-22T01:37:50;57410.92;;;-140.43;91.05
30714;BME280;17465;47.934;33.430;2023-06-22T01:40:22;57410.92;;;-140.43;90.83
30714;BME280;17465;47.934;33.430;2023-06-22T01:42:54;57410.92;;;-140.43;90.83
30714;BME280;17465;47.934;33.430;2023-06-22T01:45:25;57424.69;;;-140.43;91.47
30714;BME280;17465;47.934;33.430;2023-06-22T01:47:57;57424.69;;;-140.43;91.47
30714;BME280;17465;47.934;33.430;2023-06-22T01:50:28;57411.98;;;-140.43;91.37
30714;BME280;17465;47.934;33.430;2023-06-22T01:52:59;57398.21;;;-140.43;91.69
30714;BME280;17465;47.934;33.430;2023-06-22T01:55:30;57418.33;;;-140.43;91.24
30714;BME280;17465;47.934;33.430;2023-06-22T02:01:03;57396.09;;;-140.43;91.36
30714;BME280;17465;47.934;33.430;2023-06-22T02:03:36;57422.57;;;-140.43;91.36
30714;BME280;17465;47.934;33.430;2023-06-22T02:06:15;57426.80;;;-140.43;92.16
30714;BME280;17465;47.934;33.430;2023-06-22T02:08:51;57426.80;;;-140.43;92.16
30714;BME280;17465;47.934;33.430;2023-06-22T02:11:25;57428.92;;;-140.43;92.38
30714;BME280;17465;47.934;33.430;2023-06-22T02:13:58;57428.92;;;-140.43;92.38
30714;BME280;17465;47.934;33.430;2023-06-22T02:16:31;57429.98;;;-140.43;92.61
30714;BME280;17465;47.934;33.430;2023-06-22T02:19:02;57414.10;;;-140.43;92.38
30714;BME280;17465;47.934;33.430;2023-06-22T02:21:33;57413.04;;;-140.43;92.64
30714;BME280;17465;47.934;33.430;2023-06-22T02:24:04;57400.33;;;-140.43;92.16
30714;BME280;17465;47.934;33.430;2023-06-22T02:26:36;57408.80;;;-140.43;92.13
30714;BME280;17465;47.934;33.430;2023-06-22T02:29:07;57408.80;;;-140.43;92.13
30714;BME280;17465;47.934;33.430;2023-06-22T02:31:39;57428.92;;;-140.43;92.04
30714;BME280;17465;47.934;33.430;2023-06-22T02:34:09;57389.74;;;-140.43;91.93
30714;BME280;17465;47.934;33.430;2023-06-22T02:36:40;57389.74;;;-140.43;91.93
30714;BME280;17465;47.934;33.430;2023-06-22T02:39:11;57393.98;;;-140.43;91.95
30714;BME280;17465;47.934;33.430;2023-06-22T02:41:42;57421.51;;;-140.43;92.08
30714;BME280;17465;47.934;33.430;2023-06-22T02:44:13;57418.33;;;-140.43;92.20
30714;BME280;17465;47.934;33.430;2023-06-22T02:46:47;57418.33;;;-140.43;92.20
30714;BME280;17465;47.934;33.430;2023-06-22T02:49:17;57422.57;;;-140.43;91.94
30714;BME280;17465;47.934;33.430;2023-06-22T02:51:49;57400.33;;;-140.43;92.14
30714;BME280;17465;47.934;33.430;2023-06-22T02:54:19;57428.92;;;-140.43;91.94
30714;BME280;17465;47.934;33.430;2023-06-22T02:56:50;57433.16;;;-140.43;92.13
30714;BME280;17465;47.934;33.430;2023-06-22T02:59:20;57439.52;;;-140.43;91.53
30714;BME280;17465;47.934;33.430;2023-06-22T03:01:51;57463.87;;;-140.43;91.97
30714;BME280;17465;47.934;33.430;2023-06-22T03:04:22;57424.69;;;-140.43;92.04
30714;BME280;17465;47.934;33.430;2023-06-22T03:07:20;57417.27;;;-140.43;92.11
30714;BME280;17465;47.934;33.430;2023-06-22T03:10:26;57435.28;;;-140.43;92.24
30714;BME280;17465;47.934;33.430;2023-06-22T03:12:58;57417.27;;;-140.43;92.46
30714;BME280;17465;47.934;33.430;2023-06-22T03:15:28;57433.16;;;-140.43;92.16
30714;BME280;17465;47.934;33.430;2023-06-22T03:17:58;57413.04;;;-140.43;91.84
30714;BME280;17465;47.934;33.430;2023-06-22T03:20:31;57413.04;;;-140.43;91.84
30714;BME280;17465;47.934;33.430;2023-06-22T03:23:01;57431.04;;;-140.43;91.64
30714;BME280;17465;47.934;33.430;2023-06-22T03:25:32;57438.46;;;-140.43;90.96
30714;BME280;17465;47.934;33.430;2023-06-22T03:28:02;57431.04;;;-140.43;91.12
30714;BME280;17465;47.934;33.430;2023-06-22T03:30:40;57445.87;;;-140.43;91.25
30714;BME280;17465;47.934;33.430;2023-06-22T03:33:14;57426.80;;;-140.43;90.62
30714;BME280;17465;47.934;33.430;2023-06-22T03:35:48;57422.57;;;-140.43;90.64
30714;BME280;17465;47.934;33.430;2023-06-22T03:38:35;57458.58;;;-140.43;90.74
30714;BME280;17465;47.934;33.430;2023-06-22T03:41:19;57458.58;;;-140.43;90.74
30714;BME280;17465;47.934;33.430;2023-06-22T03:43:45;57443.75;;;-140.43;90.89
30714;BME280;17465;47.934;33.430;2023-06-22T03:46:16;57453.28;;;-140.43;90.16
30714;BME280;17465;47.934;33.430;2023-06-22T03:48:47;57453.28;;;-140.43;90.16
30714;BME280;17465;47.934;33.430;2023-06-22T03:51:18;57442.69;;;-140.43;89.93
30714;BME280;17465;47.934;33.430;2023-06-22T03:53:50;57472.35;;;-140.43;89.47
30714;BME280;17465;47.934;33.430;2023-06-22T03:56:20;57422.57;;;-140.43;89.32
30714;BME280;17465;47.934;33.430;2023-06-22T03:58:51;57422.57;;;-140.43;89.32
30714;BME280;17465;47.934;33.430;2023-06-22T04:01:25;57451.16;;;-140.43;89.02
30714;BME280;17465;47.934;33.430;2023-06-22T04:03:55;57451.16;;;-140.43;89.02
30714;BME280;17465;47.934;33.430;2023-06-22T04:06:25;57479.76;;;-140.43;88.25
30714;BME280;17465;47.934;33.430;2023-06-22T04:08:56;57482.94;;;-140.43;87.76
30714;BME280;17465;47.934;33.430;2023-06-22T04:11:26;57482.94;;;-140.43;87.76
30714;BME280;17465;47.934;33.430;2023-06-22T04:13:57;57480.82;;;-140.43;87.51
30714;BME280;17465;47.934;33.430;2023-06-22T04:16:34;57480.82;;;-140.43;87.51
30714;BME280;17465;47.934;33.430;2023-06-22T04:19:06;57492.47;;;-140.43;85.26
30714;BME280;17465;47.934;33.430;2023-06-22T04:21:37;57485.05;;;-140.43;83.86
30714;BME280;17465;47.934;33.430;2023-06-22T04:24:07;57488.23;;;-140.43;83.79
30714;BME280;17465;47.934;33.430;2023-06-22T04:26:49;57499.88;;;-140.43;83.83
30714;BME280;17465;47.934;33.430;2023-06-22T04:29:37;57482.94;;;-140.43;82.85
30714;BME280;17465;47.934;33.430;2023-06-22T04:32:21;57514.71;;;-140.43;82.31
30714;BME280;17465;47.934;33.430;2023-06-22T04:34:58;57514.71;;;-140.43;82.31
30714;BME280;17465;47.934;33.430;2023-06-22T04:37:29;57498.82;;;-140.43;80.39
30714;BME280;17465;47.934;33.430;2023-06-22T04:39:59;57527.42;;;-140.43;81.05
30714;BME280;17465;47.934;33.430;2023-06-22T04:42:30;57494.59;;;-140.43;80.83
30714;BME280;17465;47.934;33.430;2023-06-22T04:45:00;57507.30;;;-140.43;80.39
30714;BME280;17465;47.934;33.430;2023-06-22T04:47:32;57518.95;;;-140.43;81.17
30714;BME280;17465;47.934;33.430;2023-06-22T04:50:03;57556.02;;;-140.43;80.07
30714;BME280;17465;47.934;33.430;2023-06-22T04:52:39;57531.66;;;-140.43;78.95
30714;BME280;17465;47.934;33.430;2023-06-22T04:58:13;57561.31;;;-140.43;78.90
30714;BME280;17465;47.934;33.430;2023-06-22T05:00:44;57581.44;;;-140.43;77.99
30714;BME280;17465;47.934;33.430;2023-06-22T05:03:14;57559.20;;;-140.43;77.46
30714;BME280;17465;47.934;33.430;2023-06-22T05:05:46;57548.61;;;-140.43;77.72
30714;BME280;17465;47.934;33.430;2023-06-22T05:08:17;57549.66;;;-140.43;75.84
30714;BME280;17465;47.934;33.430;2023-06-22T05:10:48;57549.66;;;-140.43;75.84
30714;BME280;17465;47.934;33.430;2023-06-22T05:13:21;57561.31;;;-140.43;74.59
30714;BME280;17465;47.934;33.430;2023-06-22T05:15:51;57601.56;;;-140.43;74.60
30714;BME280;17465;47.934;33.430;2023-06-22T05:18:22;57581.44;;;-140.43;74.38
30714;BME280;17465;47.934;33.430;2023-06-22T05:21:04;57612.15;;;-140.43;74.30
30714;BME280;17465;47.934;33.430;2023-06-22T05:23:49;57624.86;;;-140.43;72.00
30714;BME280;17465;47.934;33.430;2023-06-22T05:26:44;57608.98;;;-140.43;71.67
30714;BME280;17465;47.934;33.430;2023-06-22T05:29:14;57607.91;;;-140.43;70.87
30714;BME280;17465;47.934;33.430;2023-06-22T05:31:45;57624.86;;;-140.43;70.56
30714;BME280;17465;47.934;33.430;2023-06-22T05:34:16;57624.86;;;-140.43;70.56
30714;BME280;17465;47.934;33.430;2023-06-22T05:37:02;57615.33;;;-140.43;68.32
30714;BME280;17465;47.934;33.430;2023-06-22T05:39:36;57615.33;;;-140.43;68.32
30714;BME280;17465;47.934;33.430;2023-06-22T05:42:07;57641.81;;;-140.43;67.54
30714;BME280;17465;47.934;33.430;2023-06-22T05:44:39;57637.57;;;-140.43;65.14
30714;BME280;17465;47.934;33.430;2023-06-22T05:47:09;57658.75;;;-140.43;65.44
30714;BME280;17465;47.934;33.430;2023-06-22T05:49:40;57687.35;;;-140.43;64.15
30714;BME280;17465;47.934;33.430;2023-06-22T05:52:13;57687.35;;;-140.43;64.15
30714;BME280;17465;47.934;33.430;2023-06-22T05:54:44;57677.82;;;-140.43;63.04
30714;BME280;17465;47.934;33.430;2023-06-22T05:57:14;57696.88;;;-140.43;62.36
30714;BME280;17465;47.934;33.430;2023-06-22T05:59:45;57724.42;;;-140.43;63.24
30714;BME280;17465;47.934;33.430;2023-06-22T06:02:15;57726.54;;;-140.43;62.40
30714;BME280;17465;47.934;33.430;2023-06-22T06:04:47;57737.13;;;-140.43;61.81
30714;BME280;17465;47.934;33.430;2023-06-22T06:07:17;57745.61;;;-140.43;60.07
30714;BME280;17465;47.934;33.430;2023-06-22T06:09:47;57754.08;;;-140.43;58.83
30714;BME280;17465;47.934;33.430;2023-06-22T06:12:18;57754.08;;;-140.43;58.83
30714;BME280;17465;47.934;33.430;2023-06-22T06:14:50;57796.45;;;-140.43;57.39
30714;BME280;17465;47.934;33.430;2023-06-22T06:17:20;57797.51;;;-140.43;55.84
30714;BME280;17465;47.934;33.430;2023-06-22T06:19:50;57815.51;;;-140.43;54.96
30714;BME280;17465;47.934;33.430;2023-06-22T06:22:21;57799.62;;;-140.43;53.84
30714;BME280;17465;47.934;33.430;2023-06-22T06:28:26;57808.10;;;-140.43;55.01
30714;BME280;17465;47.934;33.430;2023-06-22T06:30:57;57848.35;;;-140.43;52.47
30714;BME280;17465;47.934;33.430;2023-06-22T06:33:27;57862.12;;;-140.43;51.93
30714;BME280;17465;47.934;33.430;2023-06-22T06:35:57;57856.82;;;-140.43;50.59
30714;BME280;17465;47.934;33.430;2023-06-22T06:38:34;57904.49;;;-140.43;51.16
30714;BME280;17465;47.934;33.430;2023-06-22T06:41:01;57889.66;;;-140.43;49.07
30714;BME280;17465;47.934;33.430;2023-06-22T06:43:31;57889.66;;;-140.43;49.07
30714;BME280;17465;47.934;33.430;2023-06-22T06:49:00;57936.27;;;-140.43;46.27
30714;BME280;17465;47.934;33.430;2023-06-22T06:51:42;57942.62;;;-140.43;45.75
30714;BME280;17465;47.934;33.430;2023-06-22T06:54:13;57942.62;;;-140.43;45.75
30714;BME280;17465;47.934;33.430;2023-06-22T06:56:43;58009.36;;;-140.43;43.61
30714;BME280;17465;47.934;33.430;2023-06-22T06:59:15;58009.36;;;-140.43;43.61
30714;BME280;17465;47.934;33.430;2023-06-22T07:01:46;58030.54;;;-140.43;42.37
30714;BME280;17465;47.934;33.430;2023-06-22T07:04:19;58049.61;;;-140.43;40.54
30714;BME280;17465;47.934;33.430;2023-06-22T07:06:50;58117.40;;;-140.43;38.18
30714;BME280;17465;47.934;33.430;2023-06-22T07:09:23;58126.93;;;-140.43;39.23
30714;BME280;17465;47.934;33.430;2023-06-22T07:11:54;58126.93;;;-140.43;39.23
30714;BME280;17465;47.934;33.430;2023-06-22T07:14:25;58147.06;;;-140.43;38.04
30714;BME280;17465;47.934;33.430;2023-06-22T07:16:57;58167.19;;;-140.43;37.74
30714;BME280;17465;47.934;33.430;2023-06-22T07:19:28;58167.19;;;-140.43;37.74
30714;BME280;17465;47.934;33.430;2023-06-22T07:21:58;58164.01;;;-140.43;35.69
30714;BME280;17465;47.934;33.430;2023-06-22T07:24:28;58133.29;;;-140.43;36.43
30714;BME280;17465;47.934;33.430;2023-06-22T07:27:01;58241.34;;;-140.43;35.58
30714;BME280;17465;47.934;33.430;2023-06-22T07:29:37;58241.34;;;-140.43;35.58
30714;BME280;17465;47.934;33.430;2023-06-22T07:32:08;58242.40;;;-140.43;33.56
30714;BME280;17465;47.934;33.430;2023-06-22T07:34:40;58236.04;;;-140.43;33.27
30714;BME280;17465;47.934;33.430;2023-06-22T07:40:06;58249.82;;;-140.43;33.70
30714;BME280;17465;47.934;33.430;2023-06-22T07:42:41;58249.82;;;-140.43;33.70
30714;BME280;17465;47.934;33.430;2023-06-22T07:45:19;58331.39;;;-140.43;33.06
30714;BME280;17465;47.934;33.430;2023-06-22T07:47:50;58347.28;;;-140.43;32.07
30714;BME280;17465;47.934;33.430;2023-06-22T07:50:26;58347.28;;;-140.43;32.07
30714;BME280;17465;47.934;33.430;2023-06-22T07:53:07;58370.58;;;-140.43;31.71
30714;BME280;17465;47.934;33.430;2023-06-22T07:55:41;58450.04;;;-140.43;31.40
30714;BME280;17465;47.934;33.430;2023-06-22T07:58:11;58368.46;;;-140.43;31.30
30714;BME280;17465;47.934;33.430;2023-06-22T08:00:42;58378.00;;;-140.43;31.35
30714;BME280;17465;47.934;33.430;2023-06-22T08:03:29;58444.74;;;-140.43;30.98
30714;BME280;17465;47.934;33.430;2023-06-22T08:05:54;58414.02;;;-140.43;30.44
30714;BME280;17465;47.934;33.430;2023-06-22T08:08:24;58416.14;;;-140.43;31.01
30714;BME280;17465;47.934;33.430;2023-06-22T08:11:21;58450.04;;;-140.43;31.17
30714;BME280;17465;47.934;33.430;2023-06-22T08:13:59;58428.85;;;-140.43;29.77
30714;BME280;17465;47.934;33.430;2023-06-22T08:16:28;58466.99;;;-140.43;30.43
30714;BME280;17465;47.934;33.430;2023-06-22T08:19:15;58380.12;;;-140.43;29.44
30714;BME280;17465;47.934;33.430;2023-06-22T08:22:05;58456.39;;;-140.43;29.48
30714;BME280;17465;47.934;33.430;2023-06-22T08:24:37;58500.89;;;-140.43;28.58
30714;BME280;17465;47.934;33.430;2023-06-22T08:27:09;58500.89;;;-140.43;28.58
30714;BME280;17465;47.934;33.430;2023-06-22T08:29:41;58558.10;;;-140.43;28.60
30714;BME280;17465;47.934;33.430;2023-06-22T08:32:13;58558.10;;;-140.43;28.60
30714;BME280;17465;47.934;33.430;2023-06-22T08:34:47;58515.72;;;-140.43;27.60
30714;BME280;17465;47.934;33.430;2023-06-22T08:37:17;58457.45;;;-140.43;28.19
30714;BME280;17465;47.934;33.430;2023-06-22T08:39:47;58517.84;;;-140.43;26.72
30714;BME280;17465;47.934;33.430;2023-06-22T08:42:17;58511.48;;;-140.43;26.96
30714;BME280;17465;47.934;33.430;2023-06-22T08:44:50;58511.48;;;-140.43;26.96
30714;BME280;17465;47.934;33.430;2023-06-22T08:47:23;58543.27;;;-140.43;27.80
30714;BME280;17465;47.934;33.430;2023-06-22T08:49:59;58422.50;;;-140.43;27.47
30714;BME280;17465;47.934;33.430;2023-06-22T08:52:36;58357.87;;;-140.43;27.75
30714;BME280;17465;47.934;33.430;2023-06-22T08:55:12;58322.91;;;-140.43;29.68
30714;BME280;17465;47.934;33.430;2023-06-22T08:58:12;58313.38;;;-140.43;28.68
30714;BME280;17465;47.934;33.430;2023-06-22T09:00:55;58373.76;;;-140.43;27.66
30714;BME280;17465;47.934;33.430;2023-06-22T09:03:36;58489.24;;;-140.43;26.84
30714;BME280;17465;47.934;33.430;2023-06-22T09:06:09;58489.24;;;-140.43;26.84
30714;BME280;17465;47.934;33.430;2023-06-22T09:08:51;58444.74;;;-140.43;28.73
30714;BME280;17465;47.934;33.430;2023-06-22T09:11:37;58514.66;;;-140.43;28.15
30714;BME280;17465;47.934;33.430;2023-06-22T09:17:23;58469.11;;;-140.43;26.67
30714;BME280;17465;47.934;33.430;2023-06-22T09:19:54;58468.05;;;-140.43;27.32
30714;BME280;17465;47.934;33.430;2023-06-22T09:22:25;58486.06;;;-140.43;27.37
30714;BME280;17465;47.934;33.430;2023-06-22T09:24:56;58470.17;;;-140.43;26.97
30714;BME280;17465;47.934;33.430;2023-06-22T09:27:30;58468.05;;;-140.43;26.75
30714;BME280;17465;47.934;33.430;2023-06-22T09:30:00;58504.07;;;-140.43;26.23
30714;BME280;17465;47.934;33.430;2023-06-22T09:32:33;58577.17;;;-140.43;26.38
30714;BME280;17465;47.934;33.430;2023-06-22T09:35:08;58577.17;;;-140.43;26.18
30714;BME280;17465;47.934;33.430;2023-06-22T09:41:12;58636.50;;;-140.43;25.68
30714;BME280;17465;47.934;33.430;2023-06-22T09:46:28;55887.24;;;-140.43;25.85
30714;BME280;17465;47.934;33.430;2023-06-22T09:49:19;58572.93;;;-140.43;25.95
30714;BME280;17465;47.934;33.430;2023-06-22T09:52:01;58587.77;;;-140.43;25.44
30714;BME280;17465;47.934;33.430;2023-06-22T09:54:47;58587.77;;;-140.43;25.44
30714;BME280;17465;47.934;33.430;2023-06-22T09:57:11;58521.02;;;-140.43;25.75
30714;BME280;17465;47.934;33.430;2023-06-22T10:02:39;58566.57;;;-140.43;25.15
30714;BME280;17465;47.934;33.430;2023-06-22T10:05:12;58561.28;;;-140.43;25.08
30714;BME280;17465;47.934;33.430;2023-06-22T10:07:46;58681.00;;;-140.43;25.05
30714;BME280;17465;47.934;33.430;2023-06-22T10:10:16;58606.84;;;-140.43;25.68
30714;BME280;17465;47.934;33.430;2023-06-22T10:15:48;58354.69;;;-140.43;27.76
30714;BME280;17465;47.934;33.430;2023-06-22T10:18:21;58354.69;;;-140.43;27.76
30714;BME280;17465;47.934;33.430;2023-06-22T10:20:51;58521.02;;;-140.43;25.42
30714;BME280;17465;47.934;33.430;2023-06-22T10:23:22;58521.02;;;-140.43;25.42
30714;BME280;17465;47.934;33.430;2023-06-22T10:25:56;58537.97;;;-140.43;25.39
30714;BME280;17465;47.934;33.430;2023-06-22T10:28:28;58537.97;;;-140.43;25.39
30714;BME280;17465;47.934;33.430;2023-06-22T10:31:01;58507.25;;;-140.43;25.61
30714;BME280;17465;47.934;33.430;2023-06-22T10:33:31;58507.25;;;-140.43;25.61
30714;BME280;17465;47.934;33.430;2023-06-22T10:38:45;58630.14;;;-140.43;25.17
30714;BME280;17465;47.934;33.430;2023-06-22T10:41:17;58555.98;;;-140.43;24.61
30714;BME280;17465;47.934;33.430;2023-06-22T10:43:49;58592.00;;;-140.43;25.12
30714;BME280;17465;47.934;33.430;2023-06-22T10:46:19;58795.42;;;-140.43;23.67
30714;BME280;17465;47.934;33.430;2023-06-22T10:48:54;58631.20;;;-140.43;24.36
30714;BME280;17465;47.934;33.430;2023-06-22T10:51:24;58631.20;;;-140.43;24.36
30714;BME280;17465;47.934;33.430;2023-06-22T10:53:54;58780.59;;;-140.43;24.17
30714;BME280;17465;47.934;33.430;2023-06-22T10:56:26;58471.23;;;-140.43;24.70
30714;BME280;17465;47.934;33.430;2023-06-22T10:58:56;58471.23;;;-140.43;24.70
30714;BME280;17465;47.934;33.430;2023-06-22T11:01:27;58362.11;;;-140.43;25.16
30714;BME280;17465;47.934;33.430;2023-06-22T11:04:04;58397.07;;;-140.43;25.28
30714;BME280;17465;47.934;33.430;2023-06-22T11:06:34;58397.07;;;-140.43;25.28
30714;BME280;17465;47.934;33.430;2023-06-22T11:09:16;58549.62;;;-140.43;25.04
30714;BME280;17465;47.934;33.430;2023-06-22T11:11:51;58595.18;;;-140.43;23.68
30714;BME280;17465;47.934;33.430;2023-06-22T11:14:44;58582.47;;;-140.43;23.32
30714;BME280;17465;47.934;33.430;2023-06-22T11:17:17;58741.39;;;-140.43;23.52
30714;BME280;17465;47.934;33.430;2023-06-22T11:19:47;58855.82;;;-140.43;23.05
30714;BME280;17465;47.934;33.430;2023-06-22T11:22:20;58855.82;;;-140.43;23.05
30714;BME280;17465;47.934;33.430;2023-06-22T11:24:51;58803.90;;;-140.43;23.72
30714;BME280;17465;47.934;33.430;2023-06-22T11:27:46;58803.90;;;-140.43;23.72
30714;BME280;17465;47.934;33.430;2023-06-22T11:30:21;58704.31;;;-140.43;23.25
30714;BME280;17465;47.934;33.430;2023-06-22T11:32:53;58691.59;;;-140.43;22.59
30714;BME280;17465;47.934;33.430;2023-06-22T11:35:27;58861.11;;;-140.43;23.05
30714;BME280;17465;47.934;33.430;2023-06-22T11:37:57;58927.86;;;-140.43;21.75
30714;BME280;17465;47.934;33.430;2023-06-22T11:40:38;58927.86;;;-140.43;21.75
30714;BME280;17465;47.934;33.430;2023-06-22T11:43:04;58766.82;;;-140.43;22.43
30714;BME280;17465;47.934;33.430;2023-06-22T11:45:35;58782.71;;;-140.43;22.37
30714;BME280;17465;47.934;33.430;2023-06-22T11:48:15;58707.48;;;-140.43;23.16
30714;BME280;17465;47.934;33.430;2023-06-22T11:50:45;58684.18;;;-140.43;23.87
30714;BME280;17465;47.934;33.430;2023-06-22T11:53:17;58863.23;;;-140.43;23.31
30714;BME280;17465;47.934;33.430;2023-06-22T11:55:48;58719.14;;;-140.43;23.38
30714;BME280;17465;47.934;33.430;2023-06-22T11:58:43;58586.70;;;-140.43;24.47
30714;BME280;17465;47.934;33.430;2023-06-22T12:01:20;58388.59;;;-140.43;26.20
30714;BME280;17465;47.934;33.430;2023-06-22T12:03:54;58388.59;;;-140.43;26.20
30714;BME280;17465;47.934;33.430;2023-06-22T12:06:29;58316.55;;;-140.43;26.34
30714;BME280;17465;47.934;33.430;2023-06-22T12:09:06;58481.82;;;-140.43;24.89
30714;BME280;17465;47.934;33.430;2023-06-22T12:11:37;58481.82;;;-140.43;24.89
30714;BME280;17465;47.934;33.430;2023-06-22T12:14:07;58594.12;;;-140.43;23.93
30714;BME280;17465;47.934;33.430;2023-06-22T12:16:38;58635.44;;;-140.43;23.85
30714;BME280;17465;47.934;33.430;2023-06-22T12:19:11;58720.20;;;-140.43;24.04
30714;BME280;17465;47.934;33.430;2023-06-22T12:21:42;58798.60;;;-140.43;21.96
30714;BME280;17465;47.934;33.430;2023-06-22T12:24:13;58753.04;;;-140.43;22.58
30714;BME280;17465;47.934;33.430;2023-06-22T12:26:44;58753.04;;;-140.43;22.58
30714;BME280;17465;47.934;33.430;2023-06-22T12:29:17;58862.17;;;-140.43;22.40
30714;BME280;17465;47.934;33.430;2023-06-22T12:31:48;58867.47;;;-140.43;21.98
30714;BME280;17465;47.934;33.430;2023-06-22T12:34:18;58869.59;;;-140.43;21.97
30714;BME280;17465;47.934;33.430;2023-06-22T12:36:49;58869.59;;;-140.43;21.97
30714;BME280;17465;47.934;33.430;2023-06-22T12:39:22;58901.37;;;-140.43;22.68
30714;BME280;17465;47.934;33.430;2023-06-22T12:43:05;58732.91;;;-140.43;23.28
30714;BME280;17465;47.934;33.430;2023-06-22T12:45:08;58850.52;;;-140.43;22.03
30714;BME280;17465;47.934;33.430;2023-06-22T12:47:50;58991.44;;;-140.43;21.31
30714;BME280;17465;47.934;33.430;2023-06-22T12:50:54;58901.37;;;-140.43;21.99
30714;BME280;17465;47.934;33.430;2023-06-22T12:53:40;58850.52;;;-140.43;22.12
30714;BME280;17465;47.934;33.430;2023-06-22T12:56:30;58988.26;;;-140.43;21.89
30714;BME280;17465;47.934;33.430;2023-06-22T12:59:34;58935.28;;;-140.43;22.08
30714;BME280;17465;47.934;33.430;2023-06-22T13:02:00;58926.80;;;-140.43;22.30
30714;BME280;17465;47.934;33.430;2023-06-22T13:04:37;58857.93;;;-140.43;21.64
30714;BME280;17465;47.934;33.430;2023-06-22T13:07:11;58829.33;;;-140.43;22.59
30714;BME280;17465;47.934;33.430;2023-06-22T13:09:47;58826.15;;;-140.43;22.00
30714;BME280;17465;47.934;33.430;2023-06-22T13:12:27;58906.68;;;-140.43;22.50
30714;BME280;17465;47.934;33.430;2023-06-22T13:15:09;58891.84;;;-140.43;21.63
30714;BME280;17465;47.934;33.430;2023-06-22T13:17:43;58891.84;;;-140.43;21.63
30714;BME280;17465;47.934;33.430;2023-06-22T13:20:17;58824.03;;;-140.43;22.06
30714;BME280;17465;47.934;33.430;2023-06-22T13:22:48;58824.03;;;-140.43;22.06
30714;BME280;17465;47.934;33.430;2023-06-22T13:25:18;58848.40;;;-140.43;23.20
30714;BME280;17465;47.934;33.430;2023-06-22T13:27:52;58848.40;;;-140.43;23.20
30714;BME280;17465;47.934;33.430;2023-06-22T13:33:27;58717.02;;;-140.43;22.42
30714;BME280;17465;47.934;33.430;2023-06-22T13:36:09;58717.02;;;-140.43;22.75
30714;BME280;17465;47.934;33.430;2023-06-22T13:38:45;58560.22;;;-140.43;22.59
30714;BME280;17465;47.934;33.430;2023-06-22T13:41:33;58583.53;;;-140.43;22.86
30714;BME280;17465;47.934;33.430;2023-06-22T13:44:11;58583.53;;;-140.43;22.86